Dale, Texas
Current Conditions -  °F | °C
As of 4:35 AM on Thursday 18 Dec 2014 (Local Time) from KHYI Reporting Station
Overcast Overcast  
Wind Chill: 50°   Ceiling: 12000
Heat Index: 50°   Visibility: 3mi
Dew Point: 46°   Wind: 9mph
Humidity: 87%   Direction: 30°NNE
Pressure: 30.07"   Gusts: NA
Location:  29.93°N, 97.57°W
Report Text: KHYI 181035Z 03008KT 3SM SCT002 OVC120 10/08 A3007 RMK AO1
Loading
Personal Weather Stations






























Interactive Weather Map New forecast layout! Learn more

10-Day Weather Forecast

Advertisements
Track Severe Weather on mobile